sensor_id;sensor_type;location;lat;lon;timestamp;P1;durP1;ratioP1;P2;durP2;ratioP2
67160;SDS011;54088;52.238;21.104;2022-09-02T00:01:29;5.72;;;2.90;;
67160;SDS011;54088;52.238;21.104;2022-09-02T00:03:59;8.40;;;2.95;;
67160;SDS011;54088;52.238;21.104;2022-09-02T00:06:29;6.15;;;2.83;;
67160;SDS011;54088;52.238;21.104;2022-09-02T00:08:56;6.47;;;2.67;;
67160;SDS011;54088;52.238;21.104;2022-09-02T00:11:24;6.63;;;2.80;;
67160;SDS011;54088;52.238;21.104;2022-09-02T00:13:52;8.80;;;3.08;;
67160;SDS011;54088;52.238;21.104;2022-09-02T00:16:18;6.78;;;2.72;;
67160;SDS011;54088;52.238;21.104;2022-09-02T00:18:44;7.03;;;2.60;;
67160;SDS011;54088;52.238;21.104;2022-09-02T00:21:11;8.13;;;2.75;;
67160;SDS011;54088;52.238;21.104;2022-09-02T00:23:39;9.55;;;3.08;;
67160;SDS011;54088;52.238;21.104;2022-09-02T00:26:06;7.63;;;2.90;;
67160;SDS011;54088;52.238;21.104;2022-09-02T00:28:32;6.55;;;2.53;;
67160;SDS011;54088;52.238;21.104;2022-09-02T00:30:57;5.95;;;2.47;;
67160;SDS011;54088;52.238;21.104;2022-09-02T00:33:23;5.63;;;2.35;;
67160;SDS011;54088;52.238;21.104;2022-09-02T00:35:49;7.82;;;2.90;;
67160;SDS011;54088;52.238;21.104;2022-09-02T00:38:14;5.50;;;2.60;;
67160;SDS011;54088;52.238;21.104;2022-09-02T00:40:48;6.93;;;3.00;;
67160;SDS011;54088;52.238;21.104;2022-09-02T00:46:01;7.18;;;2.78;;
67160;SDS011;54088;52.238;21.104;2022-09-02T00:48:27;8.90;;;2.97;;
67160;SDS011;54088;52.238;21.104;2022-09-02T00:50:52;7.55;;;3.00;;
67160;SDS011;54088;52.238;21.104;2022-09-02T00:53:18;7.03;;;2.63;;
67160;SDS011;54088;52.238;21.104;2022-09-02T00:55:45;7.18;;;2.70;;
67160;SDS011;54088;52.238;21.104;2022-09-02T00:58:16;6.57;;;2.37;;
67160;SDS011;54088;52.238;21.104;2022-09-02T01:00:46;5.22;;;2.10;;
67160;SDS011;54088;52.238;21.104;2022-09-02T01:03:15;6.30;;;2.30;;
67160;SDS011;54088;52.238;21.104;2022-09-02T01:05:44;5.10;;;2.28;;
67160;SDS011;54088;52.238;21.104;2022-09-02T01:08:13;6.40;;;2.10;;
67160;SDS011;54088;52.238;21.104;2022-09-02T01:10:41;5.22;;;2.40;;
67160;SDS011;54088;52.238;21.104;2022-09-02T01:13:11;5.70;;;2.15;;
67160;SDS011;54088;52.238;21.104;2022-09-02T01:15:45;6.18;;;2.65;;
67160;SDS011;54088;52.238;21.104;2022-09-02T01:18:20;5.60;;;2.40;;
67160;SDS011;54088;52.238;21.104;2022-09-02T01:20:52;6.95;;;2.42;;
67160;SDS011;54088;52.238;21.104;2022-09-02T01:23:19;5.20;;;2.70;;
67160;SDS011;54088;52.238;21.104;2022-09-02T01:25:45;6.70;;;2.33;;
67160;SDS011;54088;52.238;21.104;2022-09-02T01:28:12;7.50;;;2.42;;
67160;SDS011;54088;52.238;21.104;2022-09-02T01:30:41;6.38;;;2.28;;
67160;SDS011;54088;52.238;21.104;2022-09-02T01:33:09;6.10;;;2.80;;
67160;SDS011;54088;52.238;21.104;2022-09-02T01:35:36;6.82;;;2.30;;
67160;SDS011;54088;52.238;21.104;2022-09-02T01:38:02;4.88;;;2.13;;
67160;SDS011;54088;52.238;21.104;2022-09-02T01:40:28;5.65;;;2.85;;
67160;SDS011;54088;52.238;21.104;2022-09-02T01:42:57;6.95;;;2.72;;
67160;SDS011;54088;52.238;21.104;2022-09-02T01:45:26;7.15;;;2.67;;
67160;SDS011;54088;52.238;21.104;2022-09-02T01:47:53;6.25;;;2.60;;
67160;SDS011;54088;52.238;21.104;2022-09-02T01:50:19;5.20;;;2.15;;
67160;SDS011;54088;52.238;21.104;2022-09-02T01:52:44;6.13;;;2.30;;
67160;SDS011;54088;52.238;21.104;2022-09-02T01:55:10;5.72;;;2.20;;
67160;SDS011;54088;52.238;21.104;2022-09-02T01:57:36;8.68;;;2.80;;
67160;SDS011;54088;52.238;21.104;2022-09-02T02:00:03;7.03;;;3.03;;
67160;SDS011;54088;52.238;21.104;2022-09-02T02:02:31;6.13;;;2.70;;
67160;SDS011;54088;52.238;21.104;2022-09-02T02:04:56;10.75;;;3.50;;
67160;SDS011;54088;52.238;21.104;2022-09-02T02:07:22;6.07;;;2.47;;
67160;SDS011;54088;52.238;21.104;2022-09-02T02:09:48;6.85;;;2.92;;
67160;SDS011;54088;52.238;21.104;2022-09-02T02:12:15;6.65;;;2.90;;
67160;SDS011;54088;52.238;21.104;2022-09-02T02:14:41;9.45;;;2.90;;
67160;SDS011;54088;52.238;21.104;2022-09-02T02:17:06;6.07;;;2.63;;
67160;SDS011;54088;52.238;21.104;2022-09-02T02:19:32;6.00;;;2.70;;
67160;SDS011;54088;52.238;21.104;2022-09-02T02:21:59;7.38;;;2.67;;
67160;SDS011;54088;52.238;21.104;2022-09-02T02:24:25;5.25;;;2.80;;
67160;SDS011;54088;52.238;21.104;2022-09-02T02:26:51;6.60;;;2.65;;
67160;SDS011;54088;52.238;21.104;2022-09-02T02:29:17;7.00;;;2.92;;
67160;SDS011;54088;52.238;21.104;2022-09-02T02:31:43;6.78;;;3.05;;
67160;SDS011;54088;52.238;21.104;2022-09-02T02:34:09;7.63;;;3.30;;
67160;SDS011;54088;52.238;21.104;2022-09-02T02:36:36;5.57;;;2.85;;
67160;SDS011;54088;52.238;21.104;2022-09-02T02:39:04;7.72;;;3.03;;
67160;SDS011;54088;52.238;21.104;2022-09-02T02:41:33;7.07;;;3.00;;
67160;SDS011;54088;52.238;21.104;2022-09-02T02:43:59;9.13;;;2.70;;
67160;SDS011;54088;52.238;21.104;2022-09-02T02:46:25;6.80;;;2.95;;
67160;SDS011;54088;52.238;21.104;2022-09-02T02:48:51;10.00;;;3.00;;
67160;SDS011;54088;52.238;21.104;2022-09-02T02:51:17;7.13;;;3.30;;
67160;SDS011;54088;52.238;21.104;2022-09-02T02:53:42;8.50;;;3.85;;
67160;SDS011;54088;52.238;21.104;2022-09-02T02:56:08;8.57;;;3.50;;
67160;SDS011;54088;52.238;21.104;2022-09-02T02:58:34;8.93;;;3.70;;
67160;SDS011;54088;52.238;21.104;2022-09-02T03:00:59;8.82;;;4.15;;
67160;SDS011;54088;52.238;21.104;2022-09-02T03:03:25;9.25;;;3.50;;
67160;SDS011;54088;52.238;21.104;2022-09-02T03:05:52;4.80;;;2.97;;
67160;SDS011;54088;52.238;21.104;2022-09-02T03:08:18;7.43;;;3.33;;
67160;SDS011;54088;52.238;21.104;2022-09-02T03:10:45;7.80;;;2.95;;
67160;SDS011;54088;52.238;21.104;2022-09-02T03:13:12;6.60;;;3.13;;
67160;SDS011;54088;52.238;21.104;2022-09-02T03:15:39;7.00;;;3.22;;
67160;SDS011;54088;52.238;21.104;2022-09-02T03:18:05;8.07;;;3.45;;
67160;SDS011;54088;52.238;21.104;2022-09-02T03:20:31;6.63;;;3.22;;
67160;SDS011;54088;52.238;21.104;2022-09-02T03:22:57;6.68;;;3.20;;
67160;SDS011;54088;52.238;21.104;2022-09-02T03:25:24;7.45;;;3.03;;
67160;SDS011;54088;52.238;21.104;2022-09-02T03:27:51;6.97;;;3.63;;
67160;SDS011;54088;52.238;21.104;2022-09-02T03:30:19;8.55;;;3.45;;
67160;SDS011;54088;52.238;21.104;2022-09-02T03:32:48;8.40;;;3.35;;
67160;SDS011;54088;52.238;21.104;2022-09-02T03:35:15;7.90;;;3.53;;
67160;SDS011;54088;52.238;21.104;2022-09-02T03:37:43;8.48;;;3.00;;
67160;SDS011;54088;52.238;21.104;2022-09-02T03:40:11;7.85;;;3.13;;
67160;SDS011;54088;52.238;21.104;2022-09-02T03:42:39;6.85;;;3.55;;
67160;SDS011;54088;52.238;21.104;2022-09-02T03:45:06;6.50;;;3.28;;
67160;SDS011;54088;52.238;21.104;2022-09-02T03:47:33;6.32;;;3.58;;
67160;SDS011;54088;52.238;21.104;2022-09-02T03:49:59;8.70;;;3.80;;
67160;SDS011;54088;52.238;21.104;2022-09-02T03:52:26;8.05;;;3.75;;
67160;SDS011;54088;52.238;21.104;2022-09-02T03:54:52;7.47;;;3.20;;
67160;SDS011;54088;52.238;21.104;2022-09-02T03:57:18;6.70;;;3.40;;
67160;SDS011;54088;52.238;21.104;2022-09-02T03:59:44;7.25;;;3.45;;
67160;SDS011;54088;52.238;21.104;2022-09-02T04:02:11;6.53;;;2.83;;
67160;SDS011;54088;52.238;21.104;2022-09-02T04:04:36;8.23;;;3.80;;
67160;SDS011;54088;52.238;21.104;2022-09-02T04:07:02;7.32;;;3.30;;
67160;SDS011;54088;52.238;21.104;2022-09-02T04:09:28;7.05;;;3.13;;
67160;SDS011;54088;52.238;21.104;2022-09-02T04:11:54;7.57;;;2.90;;
67160;SDS011;54088;52.238;21.104;2022-09-02T04:14:20;6.82;;;3.35;;
67160;SDS011;54088;52.238;21.104;2022-09-02T04:16:45;8.13;;;3.05;;
67160;SDS011;54088;52.238;21.104;2022-09-02T04:19:11;8.38;;;3.20;;
67160;SDS011;54088;52.238;21.104;2022-09-02T04:21:38;10.57;;;3.30;;
67160;SDS011;54088;52.238;21.104;2022-09-02T04:24:05;8.98;;;3.40;;
67160;SDS011;54088;52.238;21.104;2022-09-02T04:26:33;9.45;;;3.50;;
67160;SDS011;54088;52.238;21.104;2022-09-02T04:28:59;8.43;;;3.13;;
67160;SDS011;54088;52.238;21.104;2022-09-02T04:31:25;6.72;;;3.30;;
67160;SDS011;54088;52.238;21.104;2022-09-02T04:33:53;9.77;;;3.33;;
67160;SDS011;54088;52.238;21.104;2022-09-02T04:36:20;8.85;;;3.55;;
67160;SDS011;54088;52.238;21.104;2022-09-02T04:38:47;8.77;;;3.95;;
67160;SDS011;54088;52.238;21.104;2022-09-02T04:41:14;11.43;;;3.65;;
67160;SDS011;54088;52.238;21.104;2022-09-02T04:43:41;10.60;;;3.13;;
67160;SDS011;54088;52.238;21.104;2022-09-02T04:46:08;10.88;;;3.40;;
67160;SDS011;54088;52.238;21.104;2022-09-02T04:48:35;10.00;;;3.60;;
67160;SDS011;54088;52.238;21.104;2022-09-02T04:51:03;11.25;;;3.47;;
67160;SDS011;54088;52.238;21.104;2022-09-02T04:53:34;7.78;;;3.65;;
67160;SDS011;54088;52.238;21.104;2022-09-02T04:56:04;10.32;;;3.20;;
67160;SDS011;54088;52.238;21.104;2022-09-02T05:00:56;12.57;;;4.03;;
67160;SDS011;54088;52.238;21.104;2022-09-02T05:03:22;12.02;;;3.83;;
67160;SDS011;54088;52.238;21.104;2022-09-02T05:05:58;11.05;;;3.50;;
67160;SDS011;54088;52.238;21.104;2022-09-02T05:08:29;9.30;;;3.40;;
67160;SDS011;54088;52.238;21.104;2022-09-02T05:10:54;15.55;;;3.72;;
67160;SDS011;54088;52.238;21.104;2022-09-02T05:13:20;16.60;;;5.10;;
67160;SDS011;54088;52.238;21.104;2022-09-02T05:15:47;15.00;;;4.10;;
67160;SDS011;54088;52.238;21.104;2022-09-02T05:18:13;11.88;;;3.70;;
67160;SDS011;54088;52.238;21.104;2022-09-02T05:20:39;10.23;;;3.40;;
67160;SDS011;54088;52.238;21.104;2022-09-02T05:23:07;10.13;;;3.72;;
67160;SDS011;54088;52.238;21.104;2022-09-02T05:25:38;8.45;;;3.20;;
67160;SDS011;54088;52.238;21.104;2022-09-02T05:28:04;11.80;;;3.45;;
67160;SDS011;54088;52.238;21.104;2022-09-02T05:30:33;8.35;;;3.58;;
67160;SDS011;54088;52.238;21.104;2022-09-02T05:32:59;7.10;;;3.08;;
67160;SDS011;54088;52.238;21.104;2022-09-02T05:35:25;10.20;;;3.38;;
67160;SDS011;54088;52.238;21.104;2022-09-02T05:37:51;9.60;;;3.17;;
67160;SDS011;54088;52.238;21.104;2022-09-02T05:40:16;8.20;;;3.60;;
67160;SDS011;54088;52.238;21.104;2022-09-02T05:42:42;8.90;;;3.30;;
67160;SDS011;54088;52.238;21.104;2022-09-02T05:45:08;10.02;;;3.58;;
67160;SDS011;54088;52.238;21.104;2022-09-02T05:47:35;10.32;;;3.15;;
67160;SDS011;54088;52.238;21.104;2022-09-02T05:50:01;7.57;;;2.88;;
67160;SDS011;54088;52.238;21.104;2022-09-02T05:52:27;11.70;;;3.35;;
67160;SDS011;54088;52.238;21.104;2022-09-02T05:54:53;10.63;;;3.38;;
67160;SDS011;54088;52.238;21.104;2022-09-02T05:57:19;8.80;;;2.88;;
67160;SDS011;54088;52.238;21.104;2022-09-02T05:59:46;12.30;;;3.20;;
67160;SDS011;54088;52.238;21.104;2022-09-02T06:02:15;7.10;;;3.03;;
67160;SDS011;54088;52.238;21.104;2022-09-02T06:04:43;8.18;;;2.75;;
67160;SDS011;54088;52.238;21.104;2022-09-02T06:07:12;10.82;;;2.40;;
67160;SDS011;54088;52.238;21.104;2022-09-02T06:09:38;7.32;;;2.70;;
67160;SDS011;54088;52.238;21.104;2022-09-02T06:12:05;10.23;;;2.38;;
67160;SDS011;54088;52.238;21.104;2022-09-02T06:14:31;6.97;;;2.25;;
67160;SDS011;54088;52.238;21.104;2022-09-02T06:16:57;4.68;;;2.08;;
67160;SDS011;54088;52.238;21.104;2022-09-02T06:19:24;6.20;;;2.35;;
67160;SDS011;54088;52.238;21.104;2022-09-02T06:21:51;6.80;;;2.10;;
67160;SDS011;54088;52.238;21.104;2022-09-02T06:24:18;6.20;;;1.60;;
67160;SDS011;54088;52.238;21.104;2022-09-02T06:26:44;5.00;;;2.17;;
67160;SDS011;54088;52.238;21.104;2022-09-02T06:29:09;6.60;;;2.35;;
67160;SDS011;54088;52.238;21.104;2022-09-02T06:31:35;4.93;;;1.80;;
67160;SDS011;54088;52.238;21.104;2022-09-02T06:34:04;5.63;;;2.38;;
67160;SDS011;54088;52.238;21.104;2022-09-02T06:36:30;5.18;;;1.70;;
67160;SDS011;54088;52.238;21.104;2022-09-02T06:38:56;6.55;;;1.83;;
67160;SDS011;54088;52.238;21.104;2022-09-02T06:41:26;6.00;;;1.80;;
67160;SDS011;54088;52.238;21.104;2022-09-02T06:43:54;5.65;;;1.40;;
67160;SDS011;54088;52.238;21.104;2022-09-02T06:46:23;4.47;;;1.45;;
67160;SDS011;54088;52.238;21.104;2022-09-02T06:48:51;5.97;;;1.70;;
67160;SDS011;54088;52.238;21.104;2022-09-02T06:51:24;4.20;;;1.50;;
67160;SDS011;54088;52.238;21.104;2022-09-02T06:53:51;4.28;;;1.40;;
67160;SDS011;54088;52.238;21.104;2022-09-02T06:56:16;4.70;;;1.60;;
67160;SDS011;54088;52.238;21.104;2022-09-02T06:58:42;4.35;;;1.15;;
67160;SDS011;54088;52.238;21.104;2022-09-02T07:01:08;4.72;;;1.52;;
67160;SDS011;54088;52.238;21.104;2022-09-02T07:03:40;3.67;;;1.30;;
67160;SDS011;54088;52.238;21.104;2022-09-02T07:06:24;6.57;;;1.63;;
67160;SDS011;54088;52.238;21.104;2022-09-02T07:08:51;5.60;;;2.25;;
67160;SDS011;54088;52.238;21.104;2022-09-02T07:11:21;4.22;;;1.55;;
67160;SDS011;54088;52.238;21.104;2022-09-02T07:13:48;6.68;;;2.03;;
67160;SDS011;54088;52.238;21.104;2022-09-02T07:16:15;7.43;;;1.88;;
67160;SDS011;54088;52.238;21.104;2022-09-02T07:18:42;8.00;;;2.55;;
67160;SDS011;54088;52.238;21.104;2022-09-02T07:21:11;5.22;;;1.58;;
67160;SDS011;54088;52.238;21.104;2022-09-02T07:23:37;4.28;;;1.40;;
67160;SDS011;54088;52.238;21.104;2022-09-02T07:26:06;3.85;;;1.50;;
67160;SDS011;54088;52.238;21.104;2022-09-02T07:28:39;4.07;;;1.50;;
67160;SDS011;54088;52.238;21.104;2022-09-02T07:31:07;3.40;;;1.40;;
67160;SDS011;54088;52.238;21.104;2022-09-02T07:33:34;5.95;;;1.67;;
67160;SDS011;54088;52.238;21.104;2022-09-02T07:36:01;4.57;;;1.50;;
67160;SDS011;54088;52.238;21.104;2022-09-02T07:38:31;6.38;;;1.35;;
67160;SDS011;54088;52.238;21.104;2022-09-02T07:40:58;3.97;;;1.30;;
67160;SDS011;54088;52.238;21.104;2022-09-02T07:43:25;5.55;;;1.45;;
67160;SDS011;54088;52.238;21.104;2022-09-02T07:45:52;3.63;;;1.13;;
67160;SDS011;54088;52.238;21.104;2022-09-02T07:48:20;4.38;;;1.00;;
67160;SDS011;54088;52.238;21.104;2022-09-02T07:50:49;2.20;;;1.00;;
67160;SDS011;54088;52.238;21.104;2022-09-02T07:53:15;3.78;;;1.15;;
67160;SDS011;54088;52.238;21.104;2022-09-02T07:55:42;4.88;;;1.40;;
67160;SDS011;54088;52.238;21.104;2022-09-02T07:58:08;3.50;;;1.20;;
67160;SDS011;54088;52.238;21.104;2022-09-02T08:00:35;4.28;;;1.23;;
67160;SDS011;54088;52.238;21.104;2022-09-02T08:03:02;3.92;;;1.55;;
67160;SDS011;54088;52.238;21.104;2022-09-02T08:05:29;5.13;;;1.63;;
67160;SDS011;54088;52.238;21.104;2022-09-02T08:07:56;5.72;;;1.63;;
67160;SDS011;54088;52.238;21.104;2022-09-02T08:10:21;3.70;;;1.20;;
67160;SDS011;54088;52.238;21.104;2022-09-02T08:12:49;5.13;;;1.33;;
67160;SDS011;54088;52.238;21.104;2022-09-02T08:15:16;7.70;;;1.20;;
67160;SDS011;54088;52.238;21.104;2022-09-02T08:17:44;2.58;;;1.20;;
67160;SDS011;54088;52.238;21.104;2022-09-02T08:20:11;4.68;;;0.98;;
67160;SDS011;54088;52.238;21.104;2022-09-02T08:22:37;3.85;;;1.02;;
67160;SDS011;54088;52.238;21.104;2022-09-02T08:25:03;3.78;;;1.10;;
67160;SDS011;54088;52.238;21.104;2022-09-02T08:27:29;2.17;;;0.80;;
67160;SDS011;54088;52.238;21.104;2022-09-02T08:29:56;5.03;;;1.48;;
67160;SDS011;54088;52.238;21.104;2022-09-02T08:32:23;2.95;;;0.90;;
67160;SDS011;54088;52.238;21.104;2022-09-02T08:34:49;2.53;;;0.95;;
67160;SDS011;54088;52.238;21.104;2022-09-02T08:37:15;4.40;;;0.90;;
67160;SDS011;54088;52.238;21.104;2022-09-02T08:39:43;3.38;;;0.85;;
67160;SDS011;54088;52.238;21.104;2022-09-02T08:42:30;6.47;;;1.08;;
67160;SDS011;54088;52.238;21.104;2022-09-02T08:45:11;3.45;;;1.05;;
67160;SDS011;54088;52.238;21.104;2022-09-02T08:47:44;3.28;;;1.00;;
67160;SDS011;54088;52.238;21.104;2022-09-02T08:50:15;2.63;;;0.98;;
67160;SDS011;54088;52.238;21.104;2022-09-02T08:52:49;3.50;;;0.90;;
67160;SDS011;54088;52.238;21.104;2022-09-02T08:55:20;3.10;;;0.85;;
67160;SDS011;54088;52.238;21.104;2022-09-02T08:57:52;4.88;;;1.27;;
67160;SDS011;54088;52.238;21.104;2022-09-02T09:00:20;4.05;;;1.20;;
67160;SDS011;54088;52.238;21.104;2022-09-02T09:16:39;3.83;;;0.85;;
67160;SDS011;54088;52.238;21.104;2022-09-02T09:22:10;3.30;;;0.77;;
67160;SDS011;54088;52.238;21.104;2022-09-02T09:24:39;1.70;;;0.90;;
67160;SDS011;54088;52.238;21.104;2022-09-02T09:27:12;4.43;;;1.08;;
67160;SDS011;54088;52.238;21.104;2022-09-02T09:29:39;2.67;;;0.82;;
67160;SDS011;54088;52.238;21.104;2022-09-02T09:32:05;3.47;;;1.13;;
67160;SDS011;54088;52.238;21.104;2022-09-02T09:37:30;2.45;;;0.80;;
67160;SDS011;54088;52.238;21.104;2022-09-02T09:39:56;5.35;;;1.02;;
67160;SDS011;54088;52.238;21.104;2022-09-02T09:42:33;3.60;;;1.00;;
67160;SDS011;54088;52.238;21.104;2022-09-02T09:45:13;4.72;;;1.10;;
67160;SDS011;54088;52.238;21.104;2022-09-02T09:50:39;2.63;;;0.82;;
67160;SDS011;54088;52.238;21.104;2022-09-02T09:53:15;3.58;;;1.00;;
67160;SDS011;54088;52.238;21.104;2022-09-02T09:58:18;3.65;;;1.00;;
67160;SDS011;54088;52.238;21.104;2022-09-02T10:00:45;1.88;;;0.80;;
67160;SDS011;54088;52.238;21.104;2022-09-02T10:03:17;3.25;;;0.85;;
67160;SDS011;54088;52.238;21.104;2022-09-02T10:05:47;3.67;;;1.10;;
67160;SDS011;54088;52.238;21.104;2022-09-02T10:10:39;2.67;;;0.85;;
67160;SDS011;54088;52.238;21.104;2022-09-02T10:13:28;4.00;;;1.10;;
67160;SDS011;54088;52.238;21.104;2022-09-02T10:25:15;2.50;;;0.73;;
67160;SDS011;54088;52.238;21.104;2022-09-02T10:39:24;2.00;;;0.80;;
67160;SDS011;54088;52.238;21.104;2022-09-02T10:42:07;1.65;;;0.70;;
67160;SDS011;54088;52.238;21.104;2022-09-02T10:44:55;4.97;;;0.90;;
67160;SDS011;54088;52.238;21.104;2022-09-02T10:47:36;3.42;;;0.75;;
67160;SDS011;54088;52.238;21.104;2022-09-02T10:50:12;1.00;;;0.70;;
67160;SDS011;54088;52.238;21.104;2022-09-02T10:52:52;3.45;;;0.88;;
67160;SDS011;54088;52.238;21.104;2022-09-02T11:01:16;2.85;;;1.05;;
67160;SDS011;54088;52.238;21.104;2022-09-02T11:06:28;3.45;;;0.95;;
67160;SDS011;54088;52.238;21.104;2022-09-02T11:11:31;2.75;;;0.88;;
67160;SDS011;54088;52.238;21.104;2022-09-02T11:14:12;1.48;;;0.80;;
67160;SDS011;54088;52.238;21.104;2022-09-02T11:16:53;1.60;;;0.90;;
67160;SDS011;54088;52.238;21.104;2022-09-02T11:24:43;5.45;;;2.00;;
67160;SDS011;54088;52.238;21.104;2022-09-02T11:34:55;1.90;;;0.88;;
67160;SDS011;54088;52.238;21.104;2022-09-02T11:37:25;2.63;;;0.90;;
67160;SDS011;54088;52.238;21.104;2022-09-02T11:40:08;1.58;;;0.68;;
67160;SDS011;54088;52.238;21.104;2022-09-02T11:53:40;2.33;;;0.70;;
67160;SDS011;54088;52.238;21.104;2022-09-02T11:56:28;2.28;;;0.60;;
67160;SDS011;54088;52.238;21.104;2022-09-02T11:59:00;1.65;;;0.70;;
67160;SDS011;54088;52.238;21.104;2022-09-02T12:12:08;1.65;;;0.75;;
67160;SDS011;54088;52.238;21.104;2022-09-02T12:17:11;1.77;;;0.60;;
67160;SDS011;54088;52.238;21.104;2022-09-02T12:20:01;2.63;;;0.70;;
67160;SDS011;54088;52.238;21.104;2022-09-02T12:22:41;2.05;;;0.88;;
67160;SDS011;54088;52.238;21.104;2022-09-02T12:25:50;1.33;;;0.70;;
67160;SDS011;54088;52.238;21.104;2022-09-02T12:33:46;0.88;;;0.60;;
67160;SDS011;54088;52.238;21.104;2022-09-02T12:50:10;3.38;;;0.82;;
67160;SDS011;54088;52.238;21.104;2022-09-02T12:52:51;1.50;;;0.73;;
67160;SDS011;54088;52.238;21.104;2022-09-02T12:58:44;2.78;;;0.80;;
67160;SDS011;54088;52.238;21.104;2022-09-02T13:15:34;4.10;;;1.25;;
67160;SDS011;54088;52.238;21.104;2022-09-02T13:21:26;3.55;;;0.90;;
67160;SDS011;54088;52.238;21.104;2022-09-02T13:24:27;0.93;;;0.60;;
67160;SDS011;54088;52.238;21.104;2022-09-02T13:27:38;1.42;;;0.85;;
67160;SDS011;54088;52.238;21.104;2022-09-02T13:30:24;1.52;;;0.90;;
67160;SDS011;54088;52.238;21.104;2022-09-02T13:33:18;2.22;;;0.90;;
67160;SDS011;54088;52.238;21.104;2022-09-02T13:35:45;1.45;;;0.65;;
67160;SDS011;54088;52.238;21.104;2022-09-02T13:38:11;3.75;;;0.77;;
67160;SDS011;54088;52.238;21.104;2022-09-02T13:40:38;4.47;;;0.60;;
67160;SDS011;54088;52.238;21.104;2022-09-02T13:45:37;1.85;;;0.60;;
67160;SDS011;54088;52.238;21.104;2022-09-02T13:48:13;1.40;;;0.70;;
67160;SDS011;54088;52.238;21.104;2022-09-02T13:50:45;2.08;;;0.82;;
67160;SDS011;54088;52.238;21.104;2022-09-02T13:53:32;1.75;;;0.70;;
67160;SDS011;54088;52.238;21.104;2022-09-02T13:56:08;2.25;;;0.70;;
67160;SDS011;54088;52.238;21.104;2022-09-02T13:58:39;1.65;;;0.90;;
67160;SDS011;54088;52.238;21.104;2022-09-02T14:01:16;3.05;;;0.90;;
67160;SDS011;54088;52.238;21.104;2022-09-02T14:03:51;4.30;;;1.10;;
67160;SDS011;54088;52.238;21.104;2022-09-02T14:06:28;2.55;;;0.68;;
67160;SDS011;54088;52.238;21.104;2022-09-02T14:08:58;3.70;;;0.73;;
67160;SDS011;54088;52.238;21.104;2022-09-02T14:11:26;8.93;;;1.00;;
67160;SDS011;54088;52.238;21.104;2022-09-02T14:13:53;2.70;;;0.98;;
67160;SDS011;54088;52.238;21.104;2022-09-02T14:16:24;2.83;;;1.13;;
67160;SDS011;54088;52.238;21.104;2022-09-02T14:19:04;1.83;;;0.73;;
67160;SDS011;54088;52.238;21.104;2022-09-02T14:21:44;3.78;;;0.82;;
67160;SDS011;54088;52.238;21.104;2022-09-02T14:24:19;3.05;;;0.70;;
67160;SDS011;54088;52.238;21.104;2022-09-02T14:26:48;1.35;;;0.70;;
67160;SDS011;54088;52.238;21.104;2022-09-02T14:29:16;2.72;;;0.80;;
67160;SDS011;54088;52.238;21.104;2022-09-02T14:31:44;2.30;;;1.00;;
67160;SDS011;54088;52.238;21.104;2022-09-02T14:36:56;2.00;;;0.80;;
67160;SDS011;54088;52.238;21.104;2022-09-02T14:39:22;1.52;;;0.80;;
67160;SDS011;54088;52.238;21.104;2022-09-02T14:41:48;2.40;;;0.90;;
67160;SDS011;54088;52.238;21.104;2022-09-02T14:44:29;1.73;;;0.70;;
67160;SDS011;54088;52.238;21.104;2022-09-02T14:46:59;3.60;;;0.70;;
67160;SDS011;54088;52.238;21.104;2022-09-02T14:49:29;2.58;;;0.90;;
67160;SDS011;54088;52.238;21.104;2022-09-02T14:51:56;2.75;;;0.90;;
67160;SDS011;54088;52.238;21.104;2022-09-02T14:54:42;3.93;;;1.00;;
67160;SDS011;54088;52.238;21.104;2022-09-02T14:57:21;1.60;;;0.80;;
67160;SDS011;54088;52.238;21.104;2022-09-02T14:59:47;1.70;;;0.70;;
67160;SDS011;54088;52.238;21.104;2022-09-02T15:04:51;3.72;;;0.80;;
67160;SDS011;54088;52.238;21.104;2022-09-02T15:07:18;3.47;;;0.95;;
67160;SDS011;54088;52.238;21.104;2022-09-02T15:09:43;2.15;;;0.95;;
67160;SDS011;54088;52.238;21.104;2022-09-02T15:12:13;2.85;;;1.00;;
67160;SDS011;54088;52.238;21.104;2022-09-02T15:14:40;1.55;;;0.80;;
67160;SDS011;54088;52.238;21.104;2022-09-02T15:17:07;2.92;;;1.00;;
67160;SDS011;54088;52.238;21.104;2022-09-02T15:22:01;4.20;;;1.17;;
67160;SDS011;54088;52.238;21.104;2022-09-02T15:24:26;2.60;;;0.80;;
67160;SDS011;54088;52.238;21.104;2022-09-02T15:26:52;3.33;;;0.93;;
67160;SDS011;54088;52.238;21.104;2022-09-02T15:29:18;2.90;;;1.00;;
67160;SDS011;54088;52.238;21.104;2022-09-02T15:31:44;3.72;;;0.90;;
67160;SDS011;54088;52.238;21.104;2022-09-02T15:34:10;3.60;;;1.10;;
67160;SDS011;54088;52.238;21.104;2022-09-02T15:36:36;1.90;;;0.98;;
67160;SDS011;54088;52.238;21.104;2022-09-02T15:39:02;4.43;;;1.00;;
67160;SDS011;54088;52.238;21.104;2022-09-02T15:41:28;1.95;;;0.90;;
67160;SDS011;54088;52.238;21.104;2022-09-02T15:43:55;2.55;;;0.98;;
67160;SDS011;54088;52.238;21.104;2022-09-02T15:46:24;1.90;;;0.80;;
67160;SDS011;54088;52.238;21.104;2022-09-02T15:48:51;1.45;;;0.68;;
67160;SDS011;54088;52.238;21.104;2022-09-02T15:51:18;4.55;;;0.90;;
67160;SDS011;54088;52.238;21.104;2022-09-02T15:53:45;2.28;;;0.90;;
67160;SDS011;54088;52.238;21.104;2022-09-02T15:56:20;3.30;;;0.90;;
67160;SDS011;54088;52.238;21.104;2022-09-02T15:58:52;2.80;;;0.80;;
67160;SDS011;54088;52.238;21.104;2022-09-02T16:01:25;2.75;;;0.82;;
67160;SDS011;54088;52.238;21.104;2022-09-02T16:03:53;1.63;;;0.70;;
67160;SDS011;54088;52.238;21.104;2022-09-02T16:06:20;3.00;;;0.63;;
67160;SDS011;54088;52.238;21.104;2022-09-02T16:08:45;0.63;;;0.63;;
67160;SDS011;54088;52.238;21.104;2022-09-02T16:11:11;2.22;;;0.80;;
67160;SDS011;54088;52.238;21.104;2022-09-02T16:13:37;3.30;;;0.98;;
67160;SDS011;54088;52.238;21.104;2022-09-02T16:16:03;2.38;;;0.90;;
67160;SDS011;54088;52.238;21.104;2022-09-02T16:18:31;1.33;;;0.55;;
67160;SDS011;54088;52.238;21.104;2022-09-02T16:20:58;1.45;;;0.68;;
67160;SDS011;54088;52.238;21.104;2022-09-02T16:23:24;3.55;;;0.80;;
67160;SDS011;54088;52.238;21.104;2022-09-02T16:28:35;2.10;;;0.80;;
67160;SDS011;54088;52.238;21.104;2022-09-02T16:31:02;1.98;;;0.80;;
67160;SDS011;54088;52.238;21.104;2022-09-02T16:33:30;2.28;;;0.80;;
67160;SDS011;54088;52.238;21.104;2022-09-02T16:35:56;2.85;;;0.95;;
67160;SDS011;54088;52.238;21.104;2022-09-02T16:38:21;3.50;;;1.02;;
67160;SDS011;54088;52.238;21.104;2022-09-02T16:40:51;3.95;;;0.95;;
67160;SDS011;54088;52.238;21.104;2022-09-02T16:43:18;3.83;;;1.13;;
67160;SDS011;54088;52.238;21.104;2022-09-02T16:45:46;2.13;;;0.88;;
67160;SDS011;54088;52.238;21.104;2022-09-02T16:48:12;3.22;;;1.10;;
67160;SDS011;54088;52.238;21.104;2022-09-02T16:50:38;2.00;;;1.13;;
67160;SDS011;54088;52.238;21.104;2022-09-02T16:53:04;2.17;;;0.95;;
67160;SDS011;54088;52.238;21.104;2022-09-02T16:55:29;4.43;;;1.55;;
67160;SDS011;54088;52.238;21.104;2022-09-02T16:57:56;3.88;;;1.33;;
67160;SDS011;54088;52.238;21.104;2022-09-02T17:00:24;3.33;;;1.45;;
67160;SDS011;54088;52.238;21.104;2022-09-02T17:02:51;4.60;;;1.85;;
67160;SDS011;54088;52.238;21.104;2022-09-02T17:05:16;4.30;;;1.45;;
67160;SDS011;54088;52.238;21.104;2022-09-02T17:07:42;3.78;;;1.35;;
67160;SDS011;54088;52.238;21.104;2022-09-02T17:10:09;4.22;;;1.30;;
67160;SDS011;54088;52.238;21.104;2022-09-02T17:12:35;2.92;;;1.25;;
67160;SDS011;54088;52.238;21.104;2022-09-02T17:15:01;3.35;;;1.40;;
67160;SDS011;54088;52.238;21.104;2022-09-02T17:17:27;3.40;;;1.20;;
67160;SDS011;54088;52.238;21.104;2022-09-02T17:19:52;3.22;;;1.23;;